Time;durP1;ratioP1;P1;durP2;ratioP2;P2;SDS_P1;SDS_P2;PMS_P1;PMS_P2;Temp;Humidity;BMP_temperature;BMP_pressure;BME280_temperature;BME280_humidity;BME280_pressure;Samples;Min_cycle;Max_cycle;Signal;HPM_P1;HPM_P2
2022/03/10 00:01:54;;;;;;;19.5;12.7;;;;;;;0.3;64.2207;944.4236;;;;
2022/03/10 00:04:20;;;;;;;17.9;11.3;;;;;;;0.23;63.84277;944.2927;;;;
2022/03/10 00:06:48;;;;;;;19.3;14.3;;;;;;;0.22;63.92773;944.3958;;;;
2022/03/10 00:09:37;;;;;;;16.8;12.1;;;;;;;0.13;64.15137;944.372;;;;
2022/03/10 00:12:21;;;;;;;16.6;11;;;;;;;0.17;63.8877;944.3781;;;;
2022/03/10 00:14:48;;;;;;;18.3;11.6;;;;;;;0.27;63.74707;944.4138;;;;
2022/03/10 00:17:26;;;;;;;19.8;12.4;;;;;;;0.44;63.10352;944.3813;;;;
2022/03/10 00:20:03;;;;;;;20.5;11.7;;;;;;;0.45;63.04883;944.4016;;;;
2022/03/10 00:22:41;;;;;;;19.7;11.9;;;;;;;0.38;63.36328;944.4875;;;;
2022/03/10 00:25:08;;;;;;;19.8;11.9;;;;;;;0.31;63.96484;944.5701;;;;
2022/03/10 00:27:34;;;;;;;17.4;11.9;;;;;;;0.24;63.99902;944.5592;;;;
2022/03/10 00:30:04;;;;;;;18.9;11.7;;;;;;;0.04;64.65918;944.6545;;;;
2022/03/10 00:32:38;;;;;;;17.9;12.2;;;;;;;-0.11;65.1709;944.6621;;;;
2022/03/10 00:35:10;;;;;;;18.5;12.3;;;;;;;0.07;64.65234;944.5999;;;;
2022/03/10 00:37:47;;;;;;;18.6;12.3;;;;;;;0.1;64.43359;944.6298;;;;
2022/03/10 00:40:13;;;;;;;18.1;12.1;;;;;;;0;64.79688;944.5735;;;;
2022/03/10 00:42:46;;;;;;;19;12.1;;;;;;;0.07;64.59668;944.61;;;;
2022/03/10 00:45:22;;;;;;;18.8;11.1;;;;;;;0.06;64.53027;944.5439;;;;
2022/03/10 00:47:51;;;;;;;17;10.8;;;;;;;0.08;64.62012;944.562;;;;
2022/03/10 00:50:20;;;;;;;17;11.1;;;;;;;-0.01;64.98535;944.65;;;;
2022/03/10 00:52:47;;;;;;;15.3;10.7;;;;;;;0.06;64.85254;944.6973;;;;
2022/03/10 00:55:12;;;;;;;16.5;10.7;;;;;;;0.01;65.02246;944.6495;;;;
2022/03/10 00:57:37;;;;;;;18.1;11.4;;;;;;;0;65.02148;944.6853;;;;
2022/03/10 01:00:09;;;;;;;18;11.5;;;;;;;0.05;64.83887;944.6632;;;;
2022/03/10 01:02:34;;;;;;;16.6;11.4;;;;;;;-0.12;65.3252;944.69;;;;
2022/03/10 01:04:59;;;;;;;17.7;11.7;;;;;;;-0.18;65.73926;944.6877;;;;
2022/03/10 01:07:25;;;;;;;18.3;11;;;;;;;-0.21;65.80078;944.6589;;;;
2022/03/10 01:09:51;;;;;;;17;11.3;;;;;;;-0.17;65.6748;944.6755;;;;
2022/03/10 01:12:17;;;;;;;17.3;11.4;;;;;;;-0.08;65.26563;944.6113;;;;
2022/03/10 01:14:43;;;;;;;16.1;10.2;;;;;;;-0.19;65.63672;944.6297;;;;
2022/03/10 01:17:09;;;;;;;16.8;10.3;;;;;;;-0.13;65.3457;944.6349;;;;
2022/03/10 01:19:36;;;;;;;15.5;10.4;;;;;;;-0.11;65.27051;944.676;;;;
2022/03/10 01:22:01;;;;;;;14.2;10.2;;;;;;;-0.13;65.46875;944.6735;;;;
2022/03/10 01:24:26;;;;;;;14.3;10.1;;;;;;;-0.23;65.84277;944.6567;;;;
2022/03/10 01:26:54;;;;;;;16.6;10.6;;;;;;;-0.43;66.5127;944.6236;;;;
2022/03/10 01:29:19;;;;;;;15.2;10.1;;;;;;;-0.61;67.12891;944.5825;;;;
2022/03/10 01:31:48;;;;;;;15.7;10.1;;;;;;;-0.61;66.99609;944.5606;;;;
2022/03/10 01:34:13;;;;;;;16;10.4;;;;;;;-0.36;66.36719;944.6075;;;;
2022/03/10 01:36:40;;;;;;;16.8;10.2;;;;;;;-0.39;66.76367;944.5838;;;;
2022/03/10 01:39:06;;;;;;;15.6;10.4;;;;;;;-0.29;66.58984;944.5692;;;;
2022/03/10 01:42:44;;;;;;;15.5;9.7;;;;;;;-0.29;65.70996;944.5201;;;;
2022/03/10 01:44:53;;;;;;;15.9;10.2;;;;;;;-0.17;65.38477;944.5198;;;;
2022/03/10 01:47:18;;;;;;;15.7;10.3;;;;;;;-0.25;65.67285;944.4631;;;;
2022/03/10 01:49:46;;;;;;;15.2;10.1;;;;;;;-0.54;66.97363;944.5073;;;;
2022/03/10 01:52:11;;;;;;;16.7;10.3;;;;;;;-0.59;67.31055;944.4205;;;;
2022/03/10 01:54:36;;;;;;;17.3;10.5;;;;;;;-0.58;67.26758;944.5109;;;;
2022/03/10 01:57:02;;;;;;;17.2;10.4;;;;;;;-0.54;67.30664;944.4241;;;;
2022/03/10 01:59:27;;;;;;;14.9;10.2;;;;;;;-0.57;67.54688;944.4286;;;;
2022/03/10 02:01:55;;;;;;;15.1;9.5;;;;;;;-0.62;67.69336;944.488;;;;
2022/03/10 02:04:20;;;;;;;15.7;10.4;;;;;;;-0.72;67.60156;944.4703;;;;
2022/03/10 02:06:45;;;;;;;17.9;11.4;;;;;;;-0.77;67.53711;944.4625;;;;
2022/03/10 02:11:39;;;;;;;16.5;10.2;;;;;;;-0.78;67.23535;944.4744;;;;
2022/03/10 02:17:19;;;;;;;15;9.6;;;;;;;-0.62;66.75;944.3867;;;;
2022/03/10 02:19:05;;;;;;;15.3;10.2;;;;;;;-0.51;66.06738;944.4977;;;;
2022/03/10 02:21:30;;;;;;;15.5;9.6;;;;;;;-0.84;67.45898;944.4766;;;;
2022/03/10 02:23:59;;;;;;;16.3;10.7;;;;;;;-1.01;68.56641;944.4856;;;;
2022/03/10 02:26:24;;;;;;;15.1;9.6;;;;;;;-0.81;67.67578;944.4325;;;;
2022/03/10 02:28:52;;;;;;;13.6;9.6;;;;;;;-0.91;68.00488;944.4113;;;;
2022/03/10 02:31:18;;;;;;;13.2;9.5;;;;;;;-0.75;67.57324;944.3912;;;;
2022/03/10 02:33:47;;;;;;;16.1;9.9;;;;;;;-0.8;67.73242;944.3652;;;;
2022/03/10 02:36:12;;;;;;;13.8;9.7;;;;;;;-0.81;67.69629;944.3759;;;;
2022/03/10 02:38:40;;;;;;;13.7;9.2;;;;;;;-1.01;68.41113;944.3212;;;;
2022/03/10 02:41:05;;;;;;;15;9.9;;;;;;;-0.9;68.15039;944.348;;;;
2022/03/10 02:43:31;;;;;;;14.9;9.6;;;;;;;-0.78;67.71387;944.2977;;;;
2022/03/10 02:45:56;;;;;;;17.2;10.6;;;;;;;-1;69.1123;944.4324;;;;
2022/03/10 02:48:25;;;;;;;16;9.8;;;;;;;-1.07;69.31152;944.3661;;;;
2022/03/10 02:50:48;;;;;;;16;10.3;;;;;;;-1.12;69.55859;944.5105;;;;
2022/03/10 02:53:15;;;;;;;17.1;11;;;;;;;-1.21;69.60059;944.5679;;;;
2022/03/10 02:55:39;;;;;;;17.4;11;;;;;;;-1.16;69.34082;944.5767;;;;
2022/03/10 02:58:06;;;;;;;16.8;10.2;;;;;;;-1.31;69.83789;944.5262;;;;
2022/03/10 03:00:31;;;;;;;15.4;9.9;;;;;;;-1.09;69.13086;944.5399;;;;
2022/03/10 03:02:58;;;;;;;14.8;9.6;;;;;;;-1.19;69.44727;944.5414;;;;
2022/03/10 03:05:23;;;;;;;16.3;9.8;;;;;;;-1.25;69.33887;944.5641;;;;
2022/03/10 03:07:49;;;;;;;13.6;9.6;;;;;;;-1.14;69.30078;944.5673;;;;
2022/03/10 03:10:16;;;;;;;16.3;9.8;;;;;;;-1.17;69.43848;944.5861;;;;
2022/03/10 03:16:46;;;;;;;13.4;9.2;;;;;;;-1.32;69.75879;944.5692;;;;
2022/03/10 03:19:12;;;;;;;13.5;9.3;;;;;;;-1.25;69.64844;944.5731;;;;
2022/03/10 03:21:44;;;;;;;12.1;8.2;;;;;;;-1.05;67.69238;944.5862;;;;
2022/03/10 03:24:14;;;;;;;13.3;7.9;;;;;;;-0.77;66.34863;944.5566;;;;
2022/03/10 03:26:47;;;;;;;13.7;8.5;;;;;;;-0.8;66.8877;944.5553;;;;
2022/03/10 03:29:14;;;;;;;13;8.3;;;;;;;-0.86;67.06836;944.6232;;;;
2022/03/10 03:31:39;;;;;;;13.1;8.8;;;;;;;-0.9;67.30566;944.5848;;;;
2022/03/10 03:34:10;;;;;;;13;9.1;;;;;;;-0.98;67.84863;944.6047;;;;
2022/03/10 03:36:32;;;;;;;12.9;8.8;;;;;;;-1.16;68.55273;944.6439;;;;
2022/03/10 03:38:58;;;;;;;13.5;8.8;;;;;;;-1.14;68.4668;944.6646;;;;
2022/03/10 03:41:23;;;;;;;13.2;8.5;;;;;;;-1.24;68.8291;944.645;;;;
2022/03/10 03:43:51;;;;;;;14.1;8.6;;;;;;;-1.4;69.42285;944.7709;;;;
2022/03/10 03:46:16;;;;;;;13.7;9.2;;;;;;;-1.37;70.00684;944.7882;;;;
2022/03/10 03:48:43;;;;;;;18.3;10.4;;;;;;;-1.28;70.12109;944.7425;;;;
2022/03/10 03:51:08;;;;;;;19.6;11.2;;;;;;;-1.45;70.75781;944.7598;;;;
2022/03/10 03:53:34;;;;;;;25.3;13.4;;;;;;;-1.56;71.15137;944.8986;;;;
2022/03/10 03:55:59;;;;;;;17.7;11.1;;;;;;;-1.63;71.76074;944.8748;;;;
2022/03/10 03:58:25;;;;;;;15.5;10.6;;;;;;;-1.51;71.34766;944.9631;;;;
2022/03/10 04:02:37;;;;;;;16.3;10.2;;;;;;;-1.77;72.16797;944.8912;;;;
2022/03/10 04:05:03;;;;;;;15.5;10;;;;;;;-1.91;72.63477;944.9842;;;;
2022/03/10 04:07:28;;;;;;;16.4;9.5;;;;;;;-1.76;72.24902;944.9724;;;;
2022/03/10 04:09:53;;;;;;;15;8.9;;;;;;;-1.83;72.21484;945.0261;;;;
2022/03/10 04:12:18;;;;;;;14.4;9;;;;;;;-1.86;72.25391;945.0282;;;;
2022/03/10 04:14:46;;;;;;;15.2;9.3;;;;;;;-1.73;71.73438;945.03;;;;
2022/03/10 04:17:12;;;;;;;14.4;8.8;;;;;;;-1.93;72.15332;945.0294;;;;
2022/03/10 04:19:37;;;;;;;12.4;8.8;;;;;;;-1.89;71.98145;945.043;;;;
2022/03/10 04:22:03;;;;;;;13.5;8.7;;;;;;;-1.89;71.63965;945.0028;;;;
2022/03/10 04:24:28;;;;;;;12.6;8.8;;;;;;;-1.77;71.25879;945.1185;;;;
2022/03/10 04:26:54;;;;;;;13.3;8.8;;;;;;;-1.73;71.09082;945.0425;;;;
2022/03/10 04:29:19;;;;;;;14.9;9.3;;;;;;;-1.71;70.88086;945.0753;;;;
2022/03/10 04:31:47;;;;;;;17.4;9.4;;;;;;;-1.74;71.20898;945.1074;;;;
2022/03/10 04:34:12;;;;;;;18;10.6;;;;;;;-1.71;71.33789;945.1672;;;;
2022/03/10 04:36:38;;;;;;;24.9;13.6;;;;;;;-1.83;72.08105;945.1428;;;;
2022/03/10 04:39:03;;;;;;;21.8;13;;;;;;;-1.8;71.9541;945.1321;;;;
2022/03/10 04:41:30;;;;;;;31.7;13.8;;;;;;;-1.61;71.08691;945.1953;;;;
2022/03/10 04:43:55;;;;;;;23.9;12.1;;;;;;;-1.69;71.07324;945.1417;;;;
2022/03/10 04:46:22;;;;;;;18.7;11.4;;;;;;;-1.95;72.11719;945.1298;;;;
2022/03/10 04:48:47;;;;;;;15.6;9.9;;;;;;;-2.01;72.43848;945.1722;;;;
2022/03/10 04:51:15;;;;;;;18.4;10.5;;;;;;;-1.83;71.77051;945.0901;;;;
2022/03/10 04:53:40;;;;;;;16;9.2;;;;;;;-1.84;71.72461;945.1794;;;;
2022/03/10 04:57:08;;;;;;;12.5;8.7;;;;;;;-2;72.35156;945.221;;;;
2022/03/10 04:59:37;;;;;;;18.4;11.9;;;;;;;-1.88;72.25098;945.274;;;;
2022/03/10 05:02:03;;;;;;;17.2;10.8;;;;;;;-2.06;72.57324;945.2668;;;;
2022/03/10 05:04:27;;;;;;;17;9.7;;;;;;;-2.17;73.32031;945.2506;;;;
2022/03/10 05:06:55;;;;;;;13.4;8.7;;;;;;;-2.08;72.74902;945.2268;;;;
2022/03/10 05:09:20;;;;;;;13.9;9;;;;;;;-2.22;73.39844;945.2949;;;;
2022/03/10 05:11:47;;;;;;;14.5;8.7;;;;;;;-2.16;73.23242;945.3226;;;;
2022/03/10 05:14:12;;;;;;;17.8;9.4;;;;;;;-2.01;72.60645;945.2996;;;;
2022/03/10 05:16:49;;;;;;;15.7;9.3;;;;;;;-2.02;72.61426;945.3433;;;;
2022/03/10 05:19:14;;;;;;;15.4;9.8;;;;;;;-2.02;72.69043;945.3158;;;;
2022/03/10 05:21:39;;;;;;;14.4;9.1;;;;;;;-1.94;72.30566;945.2925;;;;
2022/03/10 05:24:08;;;;;;;14.8;9.4;;;;;;;-2.07;72.86035;945.2858;;;;
2022/03/10 05:26:39;;;;;;;17.2;9.5;;;;;;;-1.96;72.82324;945.2683;;;;
2022/03/10 05:29:04;;;;;;;19.1;9.6;;;;;;;-2.04;73.01953;945.2722;;;;
2022/03/10 05:31:31;;;;;;;19;10.5;;;;;;;-2.1;73.33203;945.2935;;;;
2022/03/10 05:34:03;;;;;;;23.5;13.2;;;;;;;-2.04;72.98828;945.2555;;;;
2022/03/10 05:36:36;;;;;;;19.8;13.7;;;;;;;-2.07;73.06055;945.2441;;;;
2022/03/10 05:38:59;;;;;;;17.3;10.8;;;;;;;-2.17;73.29688;945.1831;;;;
2022/03/10 05:41:29;;;;;;;11.9;8.1;;;;;;;-1.96;72.28125;945.2213;;;;
2022/03/10 05:43:54;;;;;;;19.4;9.2;;;;;;;-1.77;71.11426;945.2924;;;;
2022/03/10 05:46:20;;;;;;;13.7;8.2;;;;;;;-1.62;69.71973;945.2728;;;;
2022/03/10 05:48:45;;;;;;;11.9;7.5;;;;;;;-1.62;69.65332;945.3036;;;;
2022/03/10 05:51:13;;;;;;;13.5;7.7;;;;;;;-1.48;69.22266;945.2527;;;;
2022/03/10 05:53:38;;;;;;;14.2;8;;;;;;;-1.52;69.1709;945.3153;;;;
2022/03/10 05:56:06;;;;;;;17.3;8.7;;;;;;;-1.32;68.68164;945.3395;;;;
2022/03/10 05:58:32;;;;;;;20.6;11;;;;;;;-1.39;68.74902;945.2023;;;;
2022/03/10 06:01:02;;;;;;;17.9;11;;;;;;;-1.45;69.19336;945.324;;;;
2022/03/10 06:03:33;;;;;;;22.3;10.6;;;;;;;-1.69;70.31836;945.3243;;;;
2022/03/10 06:06:03;;;;;;;12;7.5;;;;;;;-1.58;69.82715;945.2704;;;;
2022/03/10 06:08:28;;;;;;;19.4;9;;;;;;;-1.43;69.36328;945.3362;;;;
2022/03/10 06:10:56;;;;;;;13.1;9.3;;;;;;;-1.52;69.59375;945.3734;;;;
2022/03/10 06:13:21;;;;;;;21.1;10.6;;;;;;;-1.64;69.96094;945.3574;;;;
2022/03/10 06:15:50;;;;;;;22.9;12.7;;;;;;;-1.55;70.13281;945.3318;;;;
2022/03/10 06:18:17;;;;;;;21.1;12.4;;;;;;;-1.04;69.23828;945.3086;;;;
2022/03/10 06:20:45;;;;;;;22.4;13.3;;;;;;;0.08;64.94531;945.1855;;;;
2022/03/10 06:23:10;;;;;;;19;10.7;;;;;;;1;61.37793;945.1611;;;;
2022/03/10 06:25:41;;;;;;;16.1;8.4;;;;;;;1.79;58.37109;945.181;;;;
2022/03/10 06:28:10;;;;;;;15.9;8.6;;;;;;;2.26;56.73438;945.2053;;;;
2022/03/10 06:30:36;;;;;;;16.2;7.4;;;;;;;1.8;57.73438;945.2381;;;;
2022/03/10 06:33:00;;;;;;;19.1;11.1;;;;;;;1.97;57.56934;945.278;;;;
2022/03/10 06:35:29;;;;;;;19.9;10.7;;;;;;;2.25;55.94922;945.1879;;;;
2022/03/10 06:37:53;;;;;;;17.7;9.7;;;;;;;2.86;54.21289;945.1479;;;;
2022/03/10 06:40:20;;;;;;;16.2;8;;;;;;;2.89;53.35352;945.0913;;;;
2022/03/10 06:42:45;;;;;;;16.9;8.4;;;;;;;3.32;52.2959;945.085;;;;
2022/03/10 06:45:14;;;;;;;11.6;7.4;;;;;;;3.67;50.99023;945.0305;;;;
2022/03/10 06:47:40;;;;;;;13.5;7.5;;;;;;;4.07;50.01563;945.0287;;;;
2022/03/10 06:50:04;;;;;;;12.7;7.6;;;;;;;4.11;49.59277;945.0555;;;;
2022/03/10 06:52:32;;;;;;;13.6;7.2;;;;;;;3.45;51.35645;945.0472;;;;
2022/03/10 06:55:01;;;;;;;13.8;7.3;;;;;;;4.12;50.00977;945.0316;;;;
2022/03/10 06:57:26;;;;;;;13.1;8.2;;;;;;;3.91;50.80566;944.9849;;;;
2022/03/10 06:59:53;;;;;;;14.4;8.3;;;;;;;4.08;50.6582;944.9589;;;;
2022/03/10 07:02:18;;;;;;;16.7;8.3;;;;;;;4.82;48.79688;944.8925;;;;
2022/03/10 07:04:45;;;;;;;16.1;9;;;;;;;5.08;47.76563;944.8851;;;;
2022/03/10 07:07:10;;;;;;;13.7;8.7;;;;;;;5.74;46.47461;944.8212;;;;
2022/03/10 07:09:37;;;;;;;34.2;12.5;;;;;;;5.86;46.03516;944.8347;;;;
2022/03/10 07:12:02;;;;;;;14.3;8;;;;;;;6.28;43.70605;944.7402;;;;
2022/03/10 07:14:29;;;;;;;18.7;8.6;;;;;;;5.93;44.69824;944.7173;;;;
2022/03/10 07:16:55;;;;;;;14.2;8.3;;;;;;;6.37;43.5127;944.6145;;;;
2022/03/10 07:19:21;;;;;;;14.2;7.6;;;;;;;6.46;43.2041;944.6417;;;;
2022/03/10 07:21:48;;;;;;;15.4;6.7;;;;;;;6.9;41.94629;944.6214;;;;
2022/03/10 07:24:13;;;;;;;11.6;6.7;;;;;;;6.4;41.97754;944.6727;;;;
2022/03/10 07:26:44;;;;;;;15.5;5.4;;;;;;;6.58;41.72363;944.6127;;;;
2022/03/10 07:29:14;;;;;;;17.3;10.5;;;;;;;6.52;40.82324;944.6051;;;;
2022/03/10 07:31:46;;;;;;;11.5;7.1;;;;;;;6.94;39.92383;944.5341;;;;
2022/03/10 07:34:15;;;;;;;13.6;8.3;;;;;;;7.51;38.80859;944.4684;;;;
2022/03/10 07:36:42;;;;;;;10.5;6;;;;;;;8.05;37.55176;944.4863;;;;
2022/03/10 07:39:05;;;;;;;12.8;6;;;;;;;7.96;38.04395;944.4959;;;;
2022/03/10 07:41:33;;;;;;;7.7;5;;;;;;;7.63;37.63965;944.4528;;;;
2022/03/10 07:43:59;;;;;;;7.8;4.7;;;;;;;7.84;37.16992;944.4108;;;;
2022/03/10 07:46:23;;;;;;;9.9;5.2;;;;;;;8.5;36.63574;944.3195;;;;
2022/03/10 07:48:48;;;;;;;13.2;5.5;;;;;;;9.07;35.64941;944.3008;;;;
2022/03/10 07:51:13;;;;;;;11;4.6;;;;;;;9.89;33.67676;944.3187;;;;
2022/03/10 07:53:40;;;;;;;11.8;5;;;;;;;9.94;33.5332;944.2911;;;;
2022/03/10 07:56:06;;;;;;;8.5;5.1;;;;;;;10.66;32.53809;944.1803;;;;
2022/03/10 07:58:31;;;;;;;10.2;4.9;;;;;;;11.13;31.81836;944.1389;;;;
2022/03/10 08:00:57;;;;;;;6.9;4.6;;;;;;;10.95;31.72559;944.1157;;;;
2022/03/10 08:03:21;;;;;;;9.5;4.9;;;;;;;11.46;30.7666;944.1559;;;;
2022/03/10 08:05:50;;;;;;;7.4;4.2;;;;;;;12.64;29.37109;944.1144;;;;
2022/03/10 08:08:14;;;;;;;7.8;4.5;;;;;;;12.02;28.67578;944.0917;;;;
2022/03/10 08:10:45;;;;;;;8;5.2;;;;;;;13.28;26.72559;944.084;;;;
2022/03/10 08:13:18;;;;;;;9.6;5.9;;;;;;;13.08;27.41406;944.017;;;;
2022/03/10 08:15:51;;;;;;;8.5;5;;;;;;;13.81;26.5625;943.9092;;;;
2022/03/10 08:18:17;;;;;;;11.2;6.5;;;;;;;13.7;25.81934;943.947;;;;
2022/03/10 08:20:41;;;;;;;8;4.7;;;;;;;15;24.84668;943.8917;;;;
2022/03/10 08:23:09;;;;;;;7.6;3.9;;;;;;;15.79;24.55664;943.8642;;;;
2022/03/10 08:25:34;;;;;;;7.7;4;;;;;;;16.38;23.43262;943.7502;;;;
2022/03/10 08:28:01;;;;;;;7.6;4.2;;;;;;;16.5;23.86719;943.8311;;;;
2022/03/10 08:30:26;;;;;;;5.6;3.7;;;;;;;16.87;23.01855;943.748;;;;
2022/03/10 08:32:53;;;;;;;6.9;3.5;;;;;;;16.85;22.85547;943.7867;;;;
2022/03/10 08:35:18;;;;;;;5.4;3.7;;;;;;;17.98;22.47266;943.6965;;;;
2022/03/10 08:37:45;;;;;;;6.2;4.2;;;;;;;16.89;22.59082;943.7528;;;;
2022/03/10 08:40:11;;;;;;;4.7;3.2;;;;;;;15.51;22.86719;943.7893;;;;
2022/03/10 08:42:37;;;;;;;8.5;4.1;;;;;;;15.79;23.38965;943.7614;;;;
2022/03/10 08:45:02;;;;;;;6.6;3.5;;;;;;;17.51;21.39355;943.7178;;;;
2022/03/10 08:47:26;;;;;;;5.7;3.3;;;;;;;17.58;21.60547;943.7188;;;;
2022/03/10 08:49:53;;;;;;;4.7;3.2;;;;;;;17.5;20.97559;943.7081;;;;
2022/03/10 08:52:19;;;;;;;4.3;3.1;;;;;;;16.36;22.54102;943.6956;;;;
2022/03/10 08:54:46;;;;;;;4.4;3.3;;;;;;;16.54;21.9834;943.671;;;;
2022/03/10 08:57:11;;;;;;;4.2;2.8;;;;;;;17.22;21.44922;943.6537;;;;
2022/03/10 08:59:37;;;;;;;6.2;3.3;;;;;;;18.88;19.5625;943.6261;;;;
2022/03/10 09:02:02;;;;;;;4.7;3;;;;;;;19.49;20.1377;943.5613;;;;
2022/03/10 09:04:30;;;;;;;7.2;3.1;;;;;;;21.1;18.29297;943.5795;;;;
2022/03/10 09:06:55;;;;;;;4.4;2.5;;;;;;;21.17;17.65234;943.5909;;;;
2022/03/10 09:09:24;;;;;;;3.5;2.5;;;;;;;22.2;16.5918;943.5172;;;;
2022/03/10 09:11:47;;;;;;;5.5;3;;;;;;;23.15;16.40332;943.4459;;;;
2022/03/10 09:14:14;;;;;;;5.5;3.4;;;;;;;24.76;15.31934;943.4637;;;;
2022/03/10 09:16:44;;;;;;;5.9;3.3;;;;;;;24.9;14.52148;943.4622;;;;
2022/03/10 09:19:13;;;;;;;4.1;2.7;;;;;;;23.17;15.2998;943.4567;;;;
2022/03/10 09:21:38;;;;;;;5.6;3.7;;;;;;;24.11;15.70898;943.5097;;;;
2022/03/10 09:24:04;;;;;;;7.7;3.5;;;;;;;22.02;16.39746;943.4595;;;;
2022/03/10 09:26:29;;;;;;;5.2;3.5;;;;;;;20.8;17.26367;943.4659;;;;
2022/03/10 09:28:59;;;;;;;5.3;3.4;;;;;;;20.95;17.7959;943.4231;;;;
2022/03/10 09:31:25;;;;;;;7;3.8;;;;;;;22.13;16.77637;943.4492;;;;
2022/03/10 09:33:53;;;;;;;3.6;3;;;;;;;22.75;15.74316;943.4285;;;;
2022/03/10 09:36:19;;;;;;;5.6;3.9;;;;;;;22.54;16.07617;943.4441;;;;
2022/03/10 09:38:45;;;;;;;4.6;3.2;;;;;;;22.44;15.47461;943.4777;;;;
2022/03/10 09:41:10;;;;;;;3.9;2.8;;;;;;;23.26;15.91406;943.39;;;;
2022/03/10 09:43:36;;;;;;;6.3;3.2;;;;;;;23.22;15.13672;943.395;;;;
2022/03/10 09:46:01;;;;;;;8;3.4;;;;;;;22.81;15.0293;943.378;;;;
2022/03/10 09:48:28;;;;;;;37.5;7.3;;;;;;;21.78;16.24805;943.3633;;;;
2022/03/10 09:50:53;;;;;;;4.3;3.2;;;;;;;21.25;16.83691;943.3329;;;;
2022/03/10 09:53:20;;;;;;;3.9;3.1;;;;;;;21.37;16.04492;943.2953;;;;
2022/03/10 09:55:44;;;;;;;5.9;3.3;;;;;;;22.49;15.72168;943.3051;;;;
2022/03/10 09:58:11;;;;;;;5;3.2;;;;;;;22.43;16.14258;943.2825;;;;
2022/03/10 10:00:36;;;;;;;4.3;3.4;;;;;;;21.26;16.28711;943.2768;;;;
2022/03/10 10:03:04;;;;;;;8.1;3.4;;;;;;;21.69;16.32617;943.2845;;;;
2022/03/10 10:05:29;;;;;;;5.1;3.3;;;;;;;22.01;16.0332;943.2537;;;;
2022/03/10 10:07:56;;;;;;;4.5;3;;;;;;;22.39;15.69531;943.2128;;;;
2022/03/10 10:10:21;;;;;;;6.7;3.6;;;;;;;22.82;15.24023;943.1848;;;;
2022/03/10 10:12:49;;;;;;;5;3.2;;;;;;;22.54;15.86523;943.1364;;;;
2022/03/10 10:15:14;;;;;;;4.3;3.1;;;;;;;22.97;15.86816;943.0977;;;;
2022/03/10 10:17:40;;;;;;;6;3.2;;;;;;;23.46;15.43945;943.1089;;;;
2022/03/10 10:20:05;;;;;;;5.5;3.5;;;;;;;23.81;15.58008;943.1353;;;;
2022/03/10 10:22:34;;;;;;;5.1;3.3;;;;;;;22.69;16.90332;943.0844;;;;
2022/03/10 10:24:59;;;;;;;7.1;3.8;;;;;;;21.94;17.09766;943.0814;;;;
2022/03/10 10:27:29;;;;;;;5.8;3.3;;;;;;;22.76;16.92969;943.0554;;;;
2022/03/10 10:29:54;;;;;;;8.5;3.5;;;;;;;22.45;17.62109;942.9992;;;;
2022/03/10 10:32:23;;;;;;;5.3;3.7;;;;;;;23.08;16.31934;943.0458;;;;
2022/03/10 10:34:50;;;;;;;5.6;3.3;;;;;;;23.24;16.00684;943.0094;;;;
2022/03/10 10:37:15;;;;;;;4.7;3.3;;;;;;;23.15;15.78027;942.9436;;;;
2022/03/10 10:39:43;;;;;;;7.2;3.3;;;;;;;22.64;16.81934;942.9398;;;;
2022/03/10 10:42:08;;;;;;;5.4;3.6;;;;;;;23.68;15.78809;942.8811;;;;
2022/03/10 10:44:37;;;;;;;5.4;3.6;;;;;;;22.48;16.74219;942.8712;;;;
2022/03/10 10:47:02;;;;;;;5.1;3.3;;;;;;;22.24;16.5459;942.8186;;;;
2022/03/10 10:49:28;;;;;;;4.9;3.6;;;;;;;22.92;15.9375;942.7426;;;;
2022/03/10 10:51:53;;;;;;;5.4;3.6;;;;;;;23.1;15.77832;942.7252;;;;
2022/03/10 10:54:18;;;;;;;4.9;3.3;;;;;;;22.37;15.63574;942.7589;;;;
2022/03/10 10:56:43;;;;;;;6.2;3.6;;;;;;;22.13;16.2373;942.7003;;;;
2022/03/10 10:59:08;;;;;;;4.8;3.4;;;;;;;21.39;16.43262;942.7292;;;;
2022/03/10 11:01:33;;;;;;;4.4;3.1;;;;;;;21.13;16.78516;942.718;;;;
2022/03/10 11:04:03;;;;;;;4.8;3.2;;;;;;;20.7;17.54004;942.7299;;;;
2022/03/10 11:06:27;;;;;;;5.4;3.9;;;;;;;21.06;17.16895;942.6086;;;;
2022/03/10 11:08:53;;;;;;;5.6;3.5;;;;;;;22.24;16.00684;942.5799;;;;
2022/03/10 11:11:20;;;;;;;7;3.9;;;;;;;22.72;16.42285;942.5566;;;;
2022/03/10 11:13:46;;;;;;;6.9;3.8;;;;;;;21.24;18.24023;942.5383;;;;
2022/03/10 11:16:17;;;;;;;5.7;3.5;;;;;;;21.37;17.82422;942.4979;;;;
2022/03/10 11:18:46;;;;;;;5.6;3.9;;;;;;;21.42;17.86133;942.3961;;;;
2022/03/10 11:21:11;;;;;;;5.3;3.7;;;;;;;20.77;19.07422;942.4052;;;;
2022/03/10 11:23:36;;;;;;;5.4;3.9;;;;;;;19.65;19.3877;942.3236;;;;
2022/03/10 11:26:04;;;;;;;6.7;4;;;;;;;19.88;19.24609;942.3631;;;;
2022/03/10 11:28:30;;;;;;;8.4;5.1;;;;;;;20.45;18.81543;942.2811;;;;
2022/03/10 11:30:54;;;;;;;13.9;5.1;;;;;;;19.92;19.93555;942.2492;;;;
2022/03/10 11:33:20;;;;;;;6.1;4.3;;;;;;;19.98;20.125;942.324;;;;
2022/03/10 11:35:45;;;;;;;6.2;4.7;;;;;;;20.47;20.22949;942.3025;;;;
2022/03/10 11:38:46;;;;;;;7;4.7;;;;;;;20.36;19.31348;942.2704;;;;
2022/03/10 11:41:12;;;;;;;8.8;4.8;;;;;;;20.3;20.32617;942.2605;;;;
2022/03/10 11:43:37;;;;;;;7.4;5;;;;;;;21.06;19.64746;942.3334;;;;
2022/03/10 11:46:07;;;;;;;7.7;4.8;;;;;;;21.25;19.64453;942.2247;;;;
2022/03/10 11:48:32;;;;;;;7.3;5;;;;;;;21.37;19.31152;942.2346;;;;
2022/03/10 11:51:00;;;;;;;10.1;5;;;;;;;21.05;21.07422;942.3085;;;;
2022/03/10 11:53:25;;;;;;;9.2;5.3;;;;;;;22.05;19.45703;942.1398;;;;
2022/03/10 11:55:51;;;;;;;7.6;5.1;;;;;;;22.45;19.12305;942.135;;;;
2022/03/10 11:58:15;;;;;;;8;5.4;;;;;;;21.54;20.17285;942.0675;;;;
2022/03/10 12:00:40;;;;;;;9.2;5.6;;;;;;;21.32;19.57813;942.0909;;;;
2022/03/10 12:03:07;;;;;;;8.6;5.6;;;;;;;22.69;18.69922;942.0525;;;;
2022/03/10 12:05:32;;;;;;;9;5.5;;;;;;;23.95;17.74023;942.0089;;;;
2022/03/10 12:07:58;;;;;;;7;5.2;;;;;;;25.22;16.47949;941.9433;;;;
2022/03/10 12:10:25;;;;;;;10.4;5.2;;;;;;;25.12;17.39746;941.9659;;;;
2022/03/10 12:12:50;;;;;;;9.2;5.4;;;;;;;25.76;16.7832;941.9778;;;;
2022/03/10 12:15:18;;;;;;;7.5;5.3;;;;;;;25.43;16.32227;941.9095;;;;
2022/03/10 12:17:43;;;;;;;7;4.9;;;;;;;25.59;16.61133;941.8933;;;;
2022/03/10 12:20:19;;;;;;;14.6;5.9;;;;;;;25.7;15.97754;941.8636;;;;
2022/03/10 12:22:45;;;;;;;8.3;5.2;;;;;;;24.41;17.76953;941.8284;;;;
2022/03/10 12:25:11;;;;;;;8;5.2;;;;;;;23.75;17.97852;941.8133;;;;
2022/03/10 12:27:38;;;;;;;7.1;4.9;;;;;;;23.44;17.99023;941.7946;;;;
2022/03/10 12:30:03;;;;;;;8.8;5.2;;;;;;;24.38;17.37988;941.7991;;;;
2022/03/10 12:32:34;;;;;;;8.1;5;;;;;;;22.36;18.32129;941.6919;;;;
2022/03/10 12:35:04;;;;;;;6.7;4.7;;;;;;;21.79;19.48145;941.6953;;;;
2022/03/10 12:37:29;;;;;;;8.8;4.8;;;;;;;22.28;18.61133;941.7268;;;;
2022/03/10 12:39:57;;;;;;;9.2;4.8;;;;;;;23.59;16.90234;941.687;;;;
2022/03/10 12:42:22;;;;;;;7.4;4.5;;;;;;;26.28;14.85059;941.6331;;;;
2022/03/10 12:44:48;;;;;;;7.1;4.4;;;;;;;27.65;14.1123;941.5965;;;;
2022/03/10 12:47:16;;;;;;;8.1;5.1;;;;;;;28.61;13.33398;941.5671;;;;
2022/03/10 12:49:43;;;;;;;13.3;5;;;;;;;29.49;12.72754;941.5256;;;;
2022/03/10 12:52:07;;;;;;;10.2;5.1;;;;;;;29.29;13.13965;941.3978;;;;
2022/03/10 12:54:34;;;;;;;7.1;4.4;;;;;;;28;13.75488;941.4376;;;;
2022/03/10 12:57:00;;;;;;;7.4;4.7;;;;;;;27.52;14.02539;941.3434;;;;
2022/03/10 12:59:27;;;;;;;9.4;4.6;;;;;;;28.39;13.60059;941.4202;;;;
2022/03/10 13:01:52;;;;;;;6.5;4.8;;;;;;;25.69;15.49316;941.3247;;;;
2022/03/10 13:04:20;;;;;;;24.6;6.2;;;;;;;24.43;16.66309;941.3743;;;;
2022/03/10 13:06:47;;;;;;;6.7;4.5;;;;;;;25.84;15.4502;941.272;;;;
2022/03/10 13:09:10;;;;;;;6.8;4.7;;;;;;;25.78;15.93359;941.257;;;;
2022/03/10 13:11:37;;;;;;;7.3;5.1;;;;;;;26.9;14.83496;941.2992;;;;
2022/03/10 13:14:04;;;;;;;7.7;4.7;;;;;;;27.37;14.58984;941.2516;;;;
2022/03/10 13:16:31;;;;;;;7.7;4.9;;;;;;;27.6;14.56152;941.2073;;;;
2022/03/10 13:18:56;;;;;;;6.8;4.8;;;;;;;27.11;14.43945;941.1353;;;;
2022/03/10 13:21:21;;;;;;;6.6;4.9;;;;;;;26.83;14.85645;941.1086;;;;
2022/03/10 13:23:46;;;;;;;10.6;5;;;;;;;24.1;16.73242;941.1404;;;;
2022/03/10 13:26:20;;;;;;;8.2;4.6;;;;;;;25.29;16.16309;941.1091;;;;
2022/03/10 13:28:40;;;;;;;7.1;4.8;;;;;;;23.72;17.3418;940.972;;;;
2022/03/10 13:31:06;;;;;;;7.8;4.7;;;;;;;23.56;17.12402;941.0319;;;;
2022/03/10 13:33:30;;;;;;;6.3;4.7;;;;;;;24.01;17.01172;941.0306;;;;
2022/03/10 13:35:59;;;;;;;8.1;4.7;;;;;;;26.16;15.99414;940.9769;;;;
2022/03/10 13:38:23;;;;;;;7.5;5;;;;;;;24.84;17.20898;940.9599;;;;
2022/03/10 13:41:01;;;;;;;6.9;4.7;;;;;;;24.16;17.14746;940.9574;;;;
2022/03/10 13:43:20;;;;;;;7.8;4.6;;;;;;;24.7;16.89746;940.9434;;;;
2022/03/10 13:45:50;;;;;;;6.4;4.5;;;;;;;25.77;16.05078;940.936;;;;
2022/03/10 13:48:17;;;;;;;6.7;4.3;;;;;;;23.68;17.57617;940.954;;;;
2022/03/10 13:50:42;;;;;;;7.5;4.4;;;;;;;21.74;19.20996;940.8965;;;;
2022/03/10 13:53:10;;;;;;;6.4;4.2;;;;;;;22.73;18.19531;940.9089;;;;
2022/03/10 13:55:34;;;;;;;6.5;4.3;;;;;;;24.67;16.71875;940.8194;;;;
2022/03/10 13:58:03;;;;;;;7;3.8;;;;;;;24.72;16.67383;940.7824;;;;
2022/03/10 14:00:28;;;;;;;7.5;3.9;;;;;;;25.53;15.90039;940.762;;;;
2022/03/10 14:02:54;;;;;;;6.6;4.4;;;;;;;25.41;16.09766;940.7718;;;;
2022/03/10 14:05:20;;;;;;;6.5;4.4;;;;;;;26.02;15.82324;940.753;;;;
2022/03/10 14:07:47;;;;;;;7.1;4.5;;;;;;;26.93;15.38184;940.7426;;;;
2022/03/10 14:10:12;;;;;;;7.7;4.2;;;;;;;25.32;16.47168;940.7015;;;;
2022/03/10 14:12:38;;;;;;;5.2;4.3;;;;;;;25.28;16.90723;940.6816;;;;
2022/03/10 14:15:03;;;;;;;9.6;4.3;;;;;;;25.27;16.77734;940.6287;;;;
2022/03/10 14:17:28;;;;;;;6;3.8;;;;;;;24.43;17.09863;940.6277;;;;
2022/03/10 14:19:53;;;;;;;6.3;4.2;;;;;;;25.33;16.57813;940.6082;;;;
2022/03/10 14:22:18;;;;;;;5.2;3.7;;;;;;;25.56;16.04297;940.5714;;;;
2022/03/10 14:24:46;;;;;;;5.9;4.2;;;;;;;24.12;17.64063;940.4747;;;;
2022/03/10 14:27:11;;;;;;;7;3.7;;;;;;;23.45;18.37793;940.5625;;;;
2022/03/10 14:29:39;;;;;;;7;4.4;;;;;;;24.22;17.36133;940.5385;;;;